createdAt,value
2023-05-11T00:01:27.418Z,2.40
2023-05-11T00:03:56.091Z,1.20
2023-05-11T00:06:23.112Z,2.88
2023-05-11T00:08:50.446Z,1.20
2023-05-11T00:11:18.663Z,1.75
2023-05-11T00:13:45.926Z,1.50
2023-05-11T00:16:13.068Z,1.88
2023-05-11T00:18:40.038Z,3.42
2023-05-11T00:21:07.425Z,5.07
2023-05-11T00:23:34.276Z,3.03
2023-05-11T00:26:01.150Z,1.60
2023-05-11T00:28:27.961Z,3.90
2023-05-11T00:30:58.374Z,3.28
2023-05-11T00:38:11.350Z,1.63
2023-05-11T00:40:38.760Z,3.13
2023-05-11T00:43:05.843Z,4.78
2023-05-11T00:45:33.390Z,4.70
2023-05-11T00:48:00.555Z,2.47
2023-05-11T00:50:28.165Z,1.60
2023-05-11T00:52:56.376Z,4.55
2023-05-11T00:55:23.388Z,2.28
2023-05-11T00:57:50.669Z,2.75
2023-05-11T01:00:17.876Z,4.97
2023-05-11T01:02:45.634Z,2.72
2023-05-11T01:05:12.878Z,1.58
2023-05-11T01:08:05.395Z,2.42
2023-05-11T01:10:53.460Z,1.65
2023-05-11T01:13:27.432Z,1.42
2023-05-11T01:15:56.511Z,2.88
2023-05-11T01:18:30.264Z,1.65
2023-05-11T01:21:00.317Z,1.48
2023-05-11T01:23:33.390Z,1.67
2023-05-11T01:26:28.419Z,3.22
2023-05-11T01:29:34.320Z,1.50
2023-05-11T01:32:10.358Z,1.33
2023-05-11T01:34:39.733Z,1.40
2023-05-11T01:37:12.491Z,2.25
2023-05-11T01:39:49.143Z,1.85
2023-05-11T01:42:20.496Z,1.60
2023-05-11T01:44:51.654Z,1.98
2023-05-11T01:47:20.558Z,1.60
2023-05-11T01:49:48.143Z,1.60
2023-05-11T01:52:15.807Z,3.63
2023-05-11T01:54:44.844Z,1.70
2023-05-11T01:57:13.481Z,5.20
2023-05-11T01:59:41.342Z,1.63
2023-05-11T02:02:09.464Z,1.75
2023-05-11T02:04:38.955Z,1.88
2023-05-11T02:07:11.090Z,1.33
2023-05-11T02:09:38.677Z,1.40
2023-05-11T02:12:06.630Z,1.63
2023-05-11T02:14:36.733Z,1.45
2023-05-11T02:17:06.236Z,1.50
2023-05-11T02:19:37.644Z,1.50
2023-05-11T02:22:05.956Z,2.53
2023-05-11T02:24:38.013Z,2.95
2023-05-11T02:27:05.415Z,3.08
2023-05-11T02:29:32.828Z,1.95
2023-05-11T02:32:12.345Z,2.85
2023-05-11T02:34:42.704Z,3.65
2023-05-11T02:37:24.350Z,1.92
2023-05-11T02:39:59.358Z,2.25
2023-05-11T02:42:28.160Z,3.28
2023-05-11T02:45:03.733Z,2.78
2023-05-11T02:47:39.730Z,1.73
2023-05-11T02:50:09.432Z,2.03
2023-05-11T02:52:43.512Z,2.45
2023-05-11T02:55:12.043Z,1.73
2023-05-11T02:57:39.206Z,1.98
2023-05-11T03:00:06.847Z,4.63
2023-05-11T03:02:34.010Z,1.65
2023-05-11T03:05:01.437Z,2.85
2023-05-11T03:07:28.543Z,1.60
2023-05-11T03:09:55.494Z,2.25
2023-05-11T03:12:22.639Z,1.73
2023-05-11T03:14:51.018Z,1.63
2023-05-11T03:17:21.228Z,1.52
2023-05-11T03:19:48.798Z,2.25
2023-05-11T03:22:16.168Z,3.65
2023-05-11T03:24:43.466Z,2.95
2023-05-11T03:27:12.418Z,5.10
2023-05-11T03:29:43.013Z,1.83
2023-05-11T03:32:10.073Z,3.35
2023-05-11T03:34:37.085Z,3.70
2023-05-11T03:37:07.953Z,1.70
2023-05-11T03:39:36.521Z,2.63
2023-05-11T03:42:05.092Z,1.70
2023-05-11T03:44:34.177Z,3.40
2023-05-11T03:47:03.787Z,2.28
2023-05-11T03:49:31.087Z,1.80
2023-05-11T03:51:58.236Z,3.00
2023-05-11T03:54:26.647Z,2.30
2023-05-11T03:56:53.907Z,2.30
2023-05-11T03:59:21.453Z,2.88
2023-05-11T04:01:53.616Z,1.70
2023-05-11T04:04:28.685Z,4.57
2023-05-11T04:06:55.815Z,2.03
2023-05-11T04:09:26.350Z,1.70
2023-05-11T04:11:53.639Z,2.42
2023-05-11T04:14:23.400Z,2.78
2023-05-11T04:16:54.258Z,2.17
2023-05-11T04:19:22.882Z,2.10
2023-05-11T04:21:49.741Z,3.35
2023-05-11T04:24:16.692Z,2.75
2023-05-11T04:26:43.711Z,2.50
2023-05-11T04:29:10.678Z,2.70
2023-05-11T04:31:38.604Z,1.70
2023-05-11T04:34:09.285Z,1.73
2023-05-11T04:36:36.135Z,1.95
2023-05-11T04:39:04.379Z,3.65
2023-05-11T04:41:34.263Z,2.10
2023-05-11T04:44:01.100Z,2.33
2023-05-11T04:46:28.145Z,2.05
2023-05-11T04:48:55.085Z,1.90
2023-05-11T04:51:22.406Z,2.08
2023-05-11T04:53:51.074Z,2.55
2023-05-11T04:56:20.516Z,1.98
2023-05-11T04:58:47.366Z,2.22
2023-05-11T05:01:14.225Z,2.17
2023-05-11T05:03:41.137Z,5.78
2023-05-11T05:06:08.642Z,4.00
2023-05-11T05:08:39.600Z,2.10
2023-05-11T05:11:06.817Z,2.47
2023-05-11T05:13:33.794Z,3.08
2023-05-11T05:16:00.656Z,2.05
2023-05-11T05:18:27.569Z,2.85
2023-05-11T05:20:54.499Z,2.75
2023-05-11T05:23:22.054Z,3.33
2023-05-11T05:25:50.682Z,2.80
2023-05-11T05:28:17.527Z,2.50
2023-05-11T05:30:44.368Z,2.13
2023-05-11T05:33:12.539Z,2.00
2023-05-11T05:35:43.997Z,3.95
2023-05-11T05:38:10.999Z,2.00
2023-05-11T05:40:39.497Z,2.58
2023-05-11T05:43:09.337Z,2.35
2023-05-11T05:45:36.808Z,2.47
2023-05-11T05:48:06.104Z,2.15
2023-05-11T05:50:33.185Z,4.57
2023-05-11T05:53:00.039Z,2.47
2023-05-11T05:55:27.566Z,2.63
2023-05-11T05:57:54.626Z,2.42
2023-05-11T06:00:22.780Z,4.18
2023-05-11T06:02:51.124Z,4.38
2023-05-11T06:05:18.010Z,4.35
2023-05-11T06:07:51.461Z,4.82
2023-05-11T06:10:25.980Z,3.47
2023-05-11T06:12:52.886Z,3.47
2023-05-11T06:15:19.736Z,3.40
2023-05-11T06:17:46.632Z,4.28
2023-05-11T06:20:15.864Z,4.47
2023-05-11T06:22:43.378Z,4.38
2023-05-11T06:25:10.343Z,4.75
2023-05-11T06:27:37.354Z,9.15
2023-05-11T06:30:04.566Z,4.50
2023-05-11T06:32:38.196Z,4.03
2023-05-11T06:35:05.331Z,4.13
2023-05-11T06:37:32.277Z,3.88
2023-05-11T06:39:59.523Z,5.95
2023-05-11T06:42:28.933Z,4.50
2023-05-11T06:44:56.735Z,3.53
2023-05-11T06:47:23.888Z,3.78
2023-05-11T06:49:50.690Z,2.97
2023-05-11T06:52:17.492Z,3.25
2023-05-11T06:54:47.542Z,2.95
2023-05-11T06:57:14.831Z,3.38
2023-05-11T06:59:42.300Z,3.10
2023-05-11T07:02:09.530Z,4.35
2023-05-11T07:04:37.256Z,3.17
2023-05-11T07:07:11.364Z,3.17
2023-05-11T07:09:39.425Z,3.63
2023-05-11T07:12:07.228Z,3.15
2023-05-11T07:14:34.327Z,5.35
2023-05-11T07:17:01.180Z,7.68
2023-05-11T07:19:28.116Z,4.15
2023-05-11T07:21:55.139Z,2.90
2023-05-11T07:24:26.514Z,3.30
2023-05-11T07:26:53.824Z,3.20
2023-05-11T07:29:21.142Z,2.97
2023-05-11T07:31:48.486Z,3.97
2023-05-11T07:34:20.331Z,3.28
2023-05-11T07:36:48.120Z,3.55
2023-05-11T07:39:24.960Z,3.38
2023-05-11T07:42:19.896Z,4.43
2023-05-11T07:44:47.512Z,3.33
2023-05-11T07:47:14.959Z,3.30
2023-05-11T07:52:44.320Z,4.85
2023-05-11T07:55:39.494Z,3.13
2023-05-11T07:58:06.937Z,4.50
2023-05-11T08:00:36.974Z,3.50
2023-05-11T08:03:13.561Z,2.58
2023-05-11T08:05:56.873Z,4.55
2023-05-11T08:08:25.173Z,2.78
2023-05-11T08:10:52.870Z,4.65
2023-05-11T08:32:26.363Z,2.70
2023-05-11T08:34:53.376Z,2.70
2023-05-11T08:37:20.211Z,4.68
2023-05-11T08:39:48.067Z,4.15
2023-05-11T08:42:16.759Z,9.45
2023-05-11T08:44:44.690Z,5.60
2023-05-11T08:47:22.606Z,3.22
2023-05-11T08:49:52.733Z,4.13
2023-05-11T08:52:19.808Z,3.20
2023-05-11T08:54:47.967Z,4.32
2023-05-11T08:57:15.463Z,3.00
2023-05-11T08:59:46.045Z,7.00
2023-05-11T09:02:20.162Z,6.18
2023-05-11T09:04:48.865Z,3.50
2023-05-11T09:07:25.775Z,3.45
2023-05-11T09:09:53.025Z,5.53
2023-05-11T09:12:20.296Z,3.80
2023-05-11T09:14:47.643Z,3.22
2023-05-11T09:17:19.274Z,3.63
2023-05-11T09:23:27.315Z,6.60
2023-05-11T09:25:54.841Z,3.08
2023-05-11T09:31:06.548Z,3.08
2023-05-11T09:33:33.630Z,3.85
2023-05-11T09:36:00.593Z,5.05
2023-05-11T09:38:27.516Z,4.82
2023-05-11T09:41:03.475Z,5.25
2023-05-11T09:43:31.457Z,7.13
2023-05-11T09:46:06.267Z,9.60
2023-05-11T09:48:35.126Z,3.20
2023-05-11T09:51:06.231Z,3.17
2023-05-11T09:53:46.369Z,3.60
2023-05-11T09:56:16.889Z,6.15
2023-05-11T09:58:51.472Z,3.55
2023-05-11T10:01:29.606Z,4.65
2023-05-11T10:04:08.943Z,4.88
2023-05-11T10:06:53.404Z,7.65
2023-05-11T10:09:24.795Z,8.05
2023-05-11T10:11:53.252Z,2.88
2023-05-11T10:14:20.614Z,3.13
2023-05-11T10:16:48.130Z,6.22
2023-05-11T10:19:16.048Z,3.97
2023-05-11T10:21:43.309Z,6.35
2023-05-11T10:24:11.565Z,3.78
2023-05-11T10:26:38.963Z,10.63
2023-05-11T10:29:08.689Z,5.82
2023-05-11T10:31:38.459Z,6.50
2023-05-11T10:34:06.930Z,6.15
2023-05-11T10:36:34.642Z,7.40
2023-05-11T10:39:01.646Z,11.07
2023-05-11T10:41:54.909Z,8.63
2023-05-11T10:44:59.328Z,14.68
2023-05-11T10:47:41.747Z,6.65
2023-05-11T10:50:59.928Z,11.32
2023-05-11T10:53:38.954Z,8.60
2023-05-11T10:56:25.065Z,8.98
2023-05-11T10:59:27.515Z,4.93
2023-05-11T11:01:58.850Z,10.02
2023-05-11T11:04:27.245Z,4.43
2023-05-11T11:07:09.533Z,5.20
2023-05-11T11:09:56.836Z,4.40
2023-05-11T11:12:27.618Z,6.57
2023-05-11T11:15:02.873Z,9.95
2023-05-11T11:17:35.846Z,5.57
2023-05-11T11:20:07.752Z,5.72
2023-05-11T11:22:34.765Z,3.67
2023-05-11T11:25:07.106Z,4.85
2023-05-11T11:27:49.266Z,11.50
2023-05-11T11:30:20.294Z,21.13
2023-05-11T11:32:56.065Z,5.57
2023-05-11T11:35:46.289Z,6.45
2023-05-11T11:38:14.198Z,5.45
2023-05-11T11:40:52.813Z,4.60
2023-05-11T11:43:22.355Z,4.05
2023-05-11T11:45:56.026Z,4.80
2023-05-11T11:48:30.415Z,4.90
2023-05-11T11:51:07.515Z,4.82
2023-05-11T11:53:55.113Z,6.28
2023-05-11T11:56:21.939Z,4.13
2023-05-11T11:58:48.897Z,4.85
2023-05-11T12:01:27.793Z,8.02
2023-05-11T12:04:36.794Z,4.65
2023-05-11T12:07:08.824Z,3.17
2023-05-11T12:09:40.131Z,3.13
2023-05-11T12:12:08.863Z,3.42
2023-05-11T12:14:36.258Z,4.00
2023-05-11T12:17:13.700Z,3.30
2023-05-11T12:19:43.362Z,3.80
2023-05-11T12:22:14.542Z,3.42
2023-05-11T12:24:41.547Z,3.00
2023-05-11T12:27:08.812Z,3.30
2023-05-11T12:29:37.923Z,3.30
2023-05-11T12:32:11.623Z,3.33
2023-05-11T12:34:38.538Z,3.25
2023-05-11T12:37:09.738Z,4.10
2023-05-11T12:39:38.061Z,3.30
2023-05-11T12:42:05.472Z,4.00
2023-05-11T12:44:33.077Z,5.45
2023-05-11T12:47:00.450Z,3.80
2023-05-11T12:49:28.017Z,4.15
2023-05-11T12:51:55.132Z,3.50
2023-05-11T12:54:48.112Z,3.47
2023-05-11T12:57:29.046Z,3.17
2023-05-11T13:00:10.577Z,3.45
2023-05-11T13:02:58.419Z,2.88
2023-05-11T13:05:26.923Z,4.13
2023-05-11T13:08:10.091Z,3.30
2023-05-11T13:10:37.147Z,4.15
2023-05-11T13:13:03.989Z,2.40
2023-05-11T13:15:31.501Z,2.15
2023-05-11T13:18:02.987Z,3.03
2023-05-11T13:20:34.258Z,3.53
2023-05-11T13:23:10.006Z,5.20
2023-05-11T13:25:51.837Z,3.78
2023-05-11T13:28:21.296Z,3.92
2023-05-11T13:30:50.414Z,5.50
2023-05-11T13:33:20.503Z,3.55
2023-05-11T13:35:47.506Z,2.70
2023-05-11T13:38:14.569Z,2.70
2023-05-11T13:40:41.741Z,2.10
2023-05-11T13:43:08.768Z,3.95
2023-05-11T13:45:44.685Z,4.13
2023-05-11T13:48:11.983Z,2.88
2023-05-11T13:50:39.277Z,2.33
2023-05-11T13:53:14.027Z,2.40
2023-05-11T13:55:42.653Z,2.00
2023-05-11T13:58:11.681Z,1.98
2023-05-11T14:00:43.486Z,1.70
2023-05-11T14:03:13.343Z,1.50
2023-05-11T14:05:41.395Z,1.60
2023-05-11T14:08:08.441Z,3.08
2023-05-11T14:10:36.683Z,2.25
2023-05-11T14:13:06.549Z,3.05
2023-05-11T14:15:34.597Z,1.90
2023-05-11T14:18:04.999Z,1.80
2023-05-11T14:20:32.219Z,3.42
2023-05-11T14:22:59.227Z,1.77
2023-05-11T14:25:27.034Z,1.70
2023-05-11T14:27:55.494Z,2.42
2023-05-11T14:30:23.733Z,1.63
2023-05-11T14:32:52.991Z,1.67
2023-05-11T14:35:21.896Z,1.60
2023-05-11T14:37:49.040Z,1.70
2023-05-11T14:40:16.623Z,1.83
2023-05-11T14:42:43.573Z,1.70
2023-05-11T14:45:11.283Z,1.70
2023-05-11T14:47:38.595Z,1.80
2023-05-11T14:50:06.463Z,2.08
2023-05-11T14:52:33.438Z,1.98
2023-05-11T14:55:00.376Z,1.80
2023-05-11T14:57:27.734Z,2.30
2023-05-11T15:00:00.232Z,2.13
2023-05-11T15:02:28.842Z,1.70
2023-05-11T15:04:56.000Z,2.63
2023-05-11T15:07:23.171Z,2.05
2023-05-11T15:09:50.825Z,2.40
2023-05-11T15:12:17.820Z,1.83
2023-05-11T15:14:44.649Z,2.22
2023-05-11T15:17:11.865Z,2.25
2023-05-11T15:19:38.901Z,2.28
2023-05-11T15:22:06.133Z,2.55
2023-05-11T15:24:34.039Z,2.70
2023-05-11T15:27:01.119Z,3.22
2023-05-11T15:29:28.125Z,3.30
2023-05-11T15:31:55.097Z,2.65
2023-05-11T15:34:22.399Z,3.45
2023-05-11T15:36:49.901Z,3.80
2023-05-11T15:39:20.487Z,4.22
2023-05-11T15:41:47.533Z,3.95
2023-05-11T15:44:14.690Z,5.22
2023-05-11T15:46:41.852Z,3.05
2023-05-11T15:49:09.145Z,3.13
2023-05-11T15:51:36.999Z,3.53
2023-05-11T15:54:04.064Z,3.17
2023-05-11T15:56:30.966Z,3.40
2023-05-11T15:58:57.941Z,3.70
2023-05-11T16:01:25.356Z,3.80
2023-05-11T16:03:52.324Z,4.35
2023-05-11T16:06:19.517Z,4.13
2023-05-11T16:08:46.573Z,4.10
2023-05-11T16:11:13.555Z,4.40
2023-05-11T16:13:40.554Z,4.13
2023-05-11T16:16:07.717Z,4.25
2023-05-11T16:21:04.170Z,4.53
2023-05-11T16:23:31.539Z,4.05
2023-05-11T16:25:58.655Z,5.30
2023-05-11T16:28:25.696Z,4.68
2023-05-11T16:30:52.822Z,4.70
2023-05-11T16:33:20.330Z,4.80
2023-05-11T16:35:47.317Z,4.20
2023-05-11T16:38:21.561Z,5.53
2023-05-11T16:40:49.801Z,5.43
2023-05-11T16:43:17.000Z,4.70
2023-05-11T16:45:44.612Z,5.05
2023-05-11T16:48:11.735Z,5.90
2023-05-11T16:50:38.829Z,4.70
2023-05-11T16:53:06.403Z,4.40
2023-05-11T16:55:33.405Z,7.57
2023-05-11T16:58:01.312Z,5.35
2023-05-11T17:00:28.673Z,5.03
2023-05-11T17:02:56.693Z,4.32
2023-05-11T17:05:24.230Z,5.88
2023-05-11T17:07:51.858Z,4.60
2023-05-11T17:10:19.265Z,4.88
2023-05-11T17:12:46.784Z,3.80
2023-05-11T17:15:14.135Z,4.78
2023-05-11T17:17:41.311Z,5.45
2023-05-11T17:20:10.279Z,13.48
2023-05-11T17:22:38.881Z,4.63
2023-05-11T17:25:06.520Z,4.53
2023-05-11T17:27:35.494Z,8.25
2023-05-11T17:30:02.741Z,6.35
2023-05-11T17:32:30.353Z,4.80
2023-05-11T17:34:57.692Z,7.03
2023-05-11T17:37:31.759Z,8.40
2023-05-11T17:40:00.967Z,5.28
2023-05-11T17:42:28.744Z,5.15
2023-05-11T17:44:56.577Z,6.28
2023-05-11T17:47:23.669Z,5.53
2023-05-11T17:49:50.624Z,5.75
2023-05-11T17:52:17.608Z,5.97
2023-05-11T17:54:44.551Z,5.20
2023-05-11T17:57:11.485Z,6.20
2023-05-11T17:59:38.515Z,5.20
2023-05-11T18:02:05.542Z,5.40
2023-05-11T18:04:32.483Z,5.57
2023-05-11T18:07:00.244Z,5.40
2023-05-11T18:09:27.538Z,5.50
2023-05-11T18:11:54.713Z,5.13
2023-05-11T18:14:21.610Z,8.90
2023-05-11T18:16:50.538Z,6.38
2023-05-11T18:19:18.178Z,4.88
2023-05-11T18:21:45.606Z,7.90
2023-05-11T18:24:14.692Z,10.35
2023-05-11T18:26:42.086Z,6.47
2023-05-11T18:29:08.983Z,8.13
2023-05-11T18:31:36.229Z,5.35
2023-05-11T18:34:04.385Z,5.50
2023-05-11T18:36:31.669Z,7.22
2023-05-11T18:38:58.805Z,6.85
2023-05-11T18:41:26.068Z,5.32
2023-05-11T18:43:54.462Z,5.88
2023-05-11T18:46:21.841Z,5.85
2023-05-11T18:48:52.966Z,11.52
2023-05-11T18:51:22.652Z,5.40
2023-05-11T18:53:49.972Z,5.00
2023-05-11T18:56:17.438Z,6.68
2023-05-11T18:58:45.125Z,5.95
2023-05-11T19:01:12.502Z,6.88
2023-05-11T19:03:39.783Z,5.00
2023-05-11T19:06:07.803Z,5.57
2023-05-11T19:08:35.490Z,5.15
2023-05-11T19:11:07.849Z,5.18
2023-05-11T19:13:35.339Z,5.63
2023-05-11T19:16:03.645Z,5.10
2023-05-11T19:18:32.270Z,7.22
2023-05-11T19:20:59.261Z,5.07
2023-05-11T19:23:26.317Z,7.97
2023-05-11T19:25:53.390Z,6.97
2023-05-11T19:28:20.455Z,7.05
2023-05-11T19:30:47.398Z,8.68
2023-05-11T19:33:14.483Z,9.98
2023-05-11T19:35:41.653Z,8.30
2023-05-11T19:38:08.843Z,9.25
2023-05-11T19:43:06.177Z,11.63
2023-05-11T19:45:34.089Z,10.25
2023-05-11T19:48:01.360Z,8.50
2023-05-11T19:50:28.598Z,7.43
2023-05-11T19:52:55.768Z,11.25
2023-05-11T19:55:23.135Z,6.53
2023-05-11T19:57:50.869Z,5.72
2023-05-11T20:00:18.792Z,8.48
2023-05-11T20:02:47.025Z,6.93
2023-05-11T20:05:14.047Z,6.70
2023-05-11T20:07:41.054Z,6.18
2023-05-11T20:10:08.537Z,7.13
2023-05-11T20:12:37.852Z,6.78
2023-05-11T20:15:09.010Z,7.55
2023-05-11T20:17:36.252Z,8.30
2023-05-11T20:20:03.607Z,8.98
2023-05-11T20:22:31.424Z,7.07
2023-05-11T20:24:58.423Z,7.95
2023-05-11T20:27:25.409Z,7.10
2023-05-11T20:29:52.859Z,7.22
2023-05-11T20:32:19.985Z,9.45
2023-05-11T20:34:47.355Z,6.75
2023-05-11T20:37:14.824Z,6.50
2023-05-11T20:39:41.837Z,6.60
2023-05-11T20:42:09.040Z,6.07
2023-05-11T20:44:36.253Z,6.30
2023-05-11T20:47:04.104Z,7.43
2023-05-11T20:49:38.755Z,5.68
2023-05-11T20:52:07.582Z,6.78
2023-05-11T20:54:35.856Z,15.40
2023-05-11T20:57:08.187Z,9.27
2023-05-11T21:02:05.461Z,8.75
2023-05-11T21:04:32.507Z,10.15
2023-05-11T21:06:59.482Z,6.10
2023-05-11T21:09:26.583Z,7.80
2023-05-11T21:11:53.576Z,7.47
2023-05-11T21:14:20.790Z,6.07
2023-05-11T21:16:48.146Z,7.15
2023-05-11T21:19:18.708Z,6.57
2023-05-11T21:21:47.027Z,5.22
2023-05-11T21:24:14.166Z,5.03
2023-05-11T21:26:41.617Z,7.97
2023-05-11T21:29:12.160Z,6.78
2023-05-11T21:31:39.287Z,5.63
2023-05-11T21:34:06.252Z,6.32
2023-05-11T21:36:33.440Z,6.28
2023-05-11T21:39:00.634Z,6.18
2023-05-11T21:41:27.722Z,7.40
2023-05-11T21:43:54.787Z,7.40
2023-05-11T21:46:22.022Z,5.97
2023-05-11T21:48:49.271Z,5.38
2023-05-11T21:51:16.341Z,5.57
2023-05-11T21:53:43.302Z,5.10
2023-05-11T21:56:10.498Z,6.55
2023-05-11T21:58:38.012Z,6.97
2023-05-11T22:01:05.320Z,6.15
2023-05-11T22:03:32.637Z,5.40
2023-05-11T22:05:59.603Z,6.22
2023-05-11T22:08:26.830Z,6.13
2023-05-11T22:10:54.095Z,7.65
2023-05-11T22:13:22.183Z,6.82
2023-05-11T22:15:49.255Z,6.65
2023-05-11T22:18:16.607Z,6.85
2023-05-11T22:20:43.718Z,8.35
2023-05-11T22:23:10.676Z,7.70
2023-05-11T22:25:37.618Z,8.55
2023-05-11T22:28:05.585Z,8.20
2023-05-11T22:30:32.540Z,7.10
2023-05-11T22:32:59.630Z,10.73
2023-05-11T22:35:26.903Z,6.63
2023-05-11T22:37:54.271Z,6.70
2023-05-11T22:40:21.564Z,9.13
2023-05-11T22:42:48.542Z,7.18
2023-05-11T22:45:16.638Z,6.97
2023-05-11T22:47:43.841Z,7.03
2023-05-11T22:50:12.088Z,10.45
2023-05-11T22:52:39.069Z,7.13
2023-05-11T22:55:06.829Z,6.78
2023-05-11T22:57:33.801Z,6.40
2023-05-11T23:00:00.783Z,6.43
2023-05-11T23:02:29.803Z,6.95
2023-05-11T23:04:56.881Z,7.38
2023-05-11T23:07:24.083Z,6.00
2023-05-11T23:09:53.015Z,7.10
2023-05-11T23:12:20.155Z,8.00
2023-05-11T23:14:47.444Z,6.22
2023-05-11T23:17:14.608Z,8.70
2023-05-11T23:19:41.832Z,9.68
2023-05-11T23:22:08.933Z,6.40
2023-05-11T23:24:36.218Z,7.32
2023-05-11T23:27:03.443Z,6.60
2023-05-11T23:29:30.570Z,9.40
2023-05-11T23:31:57.610Z,7.47
2023-05-11T23:34:24.554Z,7.10
2023-05-11T23:36:51.637Z,6.60
2023-05-11T23:39:18.688Z,6.57
2023-05-11T23:41:45.644Z,6.88
2023-05-11T23:44:12.857Z,8.00
2023-05-11T23:46:40.272Z,6.38
2023-05-11T23:49:08.011Z,10.13
2023-05-11T23:51:35.095Z,6.80
2023-05-11T23:54:02.175Z,7.78
2023-05-11T23:56:29.328Z,6.35
2023-05-11T23:58:56.323Z,7.82
